createdAt,value
2023-01-25T00:02:12.529Z,7.80
2023-01-25T00:04:38.683Z,7.93
2023-01-25T00:07:04.814Z,8.13
2023-01-25T00:09:30.940Z,8.25
2023-01-25T00:11:57.060Z,7.45
2023-01-25T00:14:23.169Z,7.07
2023-01-25T00:16:49.324Z,7.05
2023-01-25T00:19:15.602Z,7.18
2023-01-25T00:21:41.734Z,7.40
2023-01-25T00:24:07.910Z,6.95
2023-01-25T00:26:34.145Z,7.57
2023-01-25T00:29:00.242Z,7.63
2023-01-25T00:31:26.461Z,7.35
2023-01-25T00:33:52.597Z,6.93
2023-01-25T00:36:18.735Z,7.60
2023-01-25T00:38:44.847Z,7.80
2023-01-25T00:41:10.966Z,7.88
2023-01-25T00:43:37.110Z,7.82
2023-01-25T00:46:03.357Z,7.10
2023-01-25T00:48:29.678Z,8.05
2023-01-25T00:50:55.780Z,7.45
2023-01-25T00:53:21.917Z,7.70
2023-01-25T00:55:48.042Z,7.85
2023-01-25T00:58:14.172Z,7.32
2023-01-25T01:00:40.286Z,8.57
2023-01-25T01:03:06.436Z,8.52
2023-01-25T01:05:32.722Z,8.35
2023-01-25T01:07:58.833Z,9.07
2023-01-25T01:10:24.943Z,8.30
2023-01-25T01:12:51.127Z,7.43
2023-01-25T01:15:17.253Z,7.75
2023-01-25T01:17:43.369Z,8.18
2023-01-25T01:20:09.478Z,7.47
2023-01-25T01:22:35.626Z,7.07
2023-01-25T01:25:01.724Z,7.80
2023-01-25T01:27:27.883Z,8.60
2023-01-25T01:29:54.006Z,7.60
2023-01-25T01:32:20.250Z,8.20
2023-01-25T01:34:46.434Z,7.85
2023-01-25T01:37:12.566Z,8.07
2023-01-25T01:39:38.688Z,8.20
2023-01-25T01:42:04.812Z,8.18
2023-01-25T01:44:30.964Z,8.75
2023-01-25T01:46:57.070Z,8.25
2023-01-25T01:49:23.187Z,8.10
2023-01-25T01:51:49.332Z,8.32
2023-01-25T01:54:15.455Z,7.22
2023-01-25T01:56:41.568Z,7.68
2023-01-25T01:59:07.689Z,7.35
2023-01-25T02:01:33.916Z,7.20
2023-01-25T02:04:00.096Z,7.82
2023-01-25T02:06:26.215Z,7.00
2023-01-25T02:08:52.337Z,7.80
2023-01-25T02:11:18.493Z,8.00
2023-01-25T02:13:44.592Z,7.28
2023-01-25T02:16:10.796Z,7.70
2023-01-25T02:18:36.933Z,7.95
2023-01-25T02:21:03.080Z,8.07
2023-01-25T02:23:29.193Z,7.50
2023-01-25T02:25:55.316Z,7.85
2023-01-25T02:28:21.457Z,7.38
2023-01-25T02:30:47.620Z,7.68
2023-01-25T02:33:13.730Z,7.53
2023-01-25T02:35:39.865Z,6.93
2023-01-25T02:38:06.017Z,7.75
2023-01-25T02:40:32.180Z,7.40
2023-01-25T02:42:58.293Z,7.53
2023-01-25T02:45:24.411Z,7.32
2023-01-25T02:47:50.513Z,7.47
2023-01-25T02:50:16.651Z,7.57
2023-01-25T02:52:42.747Z,7.47
2023-01-25T02:55:09.253Z,7.65
2023-01-25T02:57:35.623Z,7.88
2023-01-25T03:00:01.770Z,8.07
2023-01-25T03:02:28.206Z,7.93
2023-01-25T03:04:54.362Z,7.32
2023-01-25T03:07:20.484Z,8.00
2023-01-25T03:09:46.613Z,7.50
2023-01-25T03:12:12.739Z,8.02
2023-01-25T03:14:38.843Z,7.65
2023-01-25T03:17:04.964Z,8.18
2023-01-25T03:19:31.296Z,8.00
2023-01-25T03:21:57.454Z,7.88
2023-01-25T03:24:23.615Z,7.22
2023-01-25T03:26:49.775Z,7.75
2023-01-25T03:29:15.875Z,7.57
2023-01-25T03:31:42.111Z,7.05
2023-01-25T03:34:08.251Z,7.10
2023-01-25T03:36:34.392Z,7.00
2023-01-25T03:39:00.516Z,6.60
2023-01-25T03:41:26.645Z,6.53
2023-01-25T03:43:52.749Z,6.65
2023-01-25T03:46:18.873Z,7.25
2023-01-25T03:48:44.984Z,6.63
2023-01-25T03:51:11.317Z,6.35
2023-01-25T03:53:37.441Z,7.25
2023-01-25T03:56:03.554Z,6.68
2023-01-25T03:58:29.704Z,6.63
2023-01-25T04:00:56.313Z,5.95
2023-01-25T04:03:22.464Z,6.03
2023-01-25T04:05:48.583Z,6.85
2023-01-25T04:08:14.714Z,8.73
2023-01-25T04:10:40.813Z,7.63
2023-01-25T04:13:06.943Z,7.55
2023-01-25T04:15:33.084Z,7.47
2023-01-25T04:17:59.220Z,7.03
2023-01-25T04:20:25.342Z,6.78
2023-01-25T04:22:51.460Z,6.57
2023-01-25T04:25:17.590Z,6.82
2023-01-25T04:27:43.734Z,6.80
2023-01-25T04:30:09.859Z,6.68
2023-01-25T04:32:36.108Z,7.15
2023-01-25T04:35:02.295Z,6.72
2023-01-25T04:37:28.428Z,7.00
2023-01-25T04:39:54.545Z,7.28
2023-01-25T04:42:20.646Z,6.95
2023-01-25T04:44:46.787Z,6.60
2023-01-25T04:47:12.903Z,7.15
2023-01-25T04:49:39.071Z,7.40
2023-01-25T04:52:05.237Z,6.55
2023-01-25T04:54:31.366Z,7.00
2023-01-25T04:56:57.525Z,6.93
2023-01-25T04:59:23.674Z,7.45
2023-01-25T05:01:49.821Z,6.93
2023-01-25T05:04:15.961Z,6.93
2023-01-25T05:06:42.105Z,6.88
2023-01-25T05:09:08.259Z,6.55
2023-01-25T05:11:34.402Z,6.47
2023-01-25T05:14:00.559Z,6.65
2023-01-25T05:16:26.714Z,6.07
2023-01-25T05:18:52.853Z,6.47
2023-01-25T05:21:18.993Z,6.55
2023-01-25T05:23:45.144Z,6.00
2023-01-25T05:26:11.315Z,5.32
2023-01-25T05:28:37.456Z,6.55
2023-01-25T05:31:03.617Z,6.15
2023-01-25T05:33:29.764Z,5.90
2023-01-25T05:35:56.050Z,6.22
2023-01-25T05:38:22.235Z,5.32
2023-01-25T05:40:48.382Z,5.57
2023-01-25T05:43:14.492Z,5.65
2023-01-25T05:45:40.663Z,5.15
2023-01-25T05:48:06.778Z,5.25
2023-01-25T05:50:32.931Z,5.22
2023-01-25T05:52:59.048Z,5.75
2023-01-25T05:55:25.215Z,5.22
2023-01-25T05:57:51.330Z,4.78
2023-01-25T06:00:17.454Z,5.38
2023-01-25T06:02:43.689Z,5.07
2023-01-25T06:05:10.341Z,5.15
2023-01-25T06:07:36.599Z,5.47
2023-01-25T06:10:02.804Z,5.63
2023-01-25T06:12:29.589Z,4.85
2023-01-25T06:14:56.432Z,5.25
2023-01-25T06:17:22.576Z,5.43
2023-01-25T06:19:48.694Z,5.07
2023-01-25T06:22:14.850Z,4.75
2023-01-25T06:24:40.961Z,5.20
2023-01-25T06:27:07.114Z,4.82
2023-01-25T06:29:33.262Z,5.03
2023-01-25T06:31:59.424Z,4.95
2023-01-25T06:34:25.584Z,5.22
2023-01-25T06:36:51.713Z,5.75
2023-01-25T06:39:17.824Z,6.18
2023-01-25T06:41:43.985Z,5.38
2023-01-25T06:44:10.086Z,5.70
2023-01-25T06:46:36.432Z,5.10
2023-01-25T06:49:02.648Z,5.45
2023-01-25T06:51:28.797Z,4.75
2023-01-25T06:53:54.905Z,5.05
2023-01-25T06:56:21.108Z,5.22
2023-01-25T06:58:47.237Z,4.55
2023-01-25T07:01:13.587Z,4.15
2023-01-25T07:03:39.773Z,4.43
2023-01-25T07:06:05.889Z,4.50
2023-01-25T07:08:32.011Z,4.35
2023-01-25T07:10:58.141Z,4.22
2023-01-25T07:13:24.287Z,4.20
2023-01-25T07:15:50.424Z,4.63
2023-01-25T07:18:16.896Z,4.35
2023-01-25T07:20:43.027Z,4.22
2023-01-25T07:23:09.155Z,4.38
2023-01-25T07:25:35.293Z,4.82
2023-01-25T07:28:01.423Z,5.10
2023-01-25T07:30:27.611Z,4.72
2023-01-25T07:32:53.774Z,4.43
2023-01-25T07:35:19.887Z,4.93
2023-01-25T07:37:46.031Z,4.65
2023-01-25T07:40:12.147Z,4.38
2023-01-25T07:42:38.307Z,5.00
2023-01-25T07:45:04.445Z,4.90
2023-01-25T07:47:30.551Z,5.15
2023-01-25T07:49:56.760Z,5.85
2023-01-25T07:52:22.873Z,4.90
2023-01-25T07:54:49.237Z,4.80
2023-01-25T07:57:15.431Z,5.55
2023-01-25T07:59:41.566Z,5.00
2023-01-25T08:02:07.678Z,5.13
2023-01-25T08:04:33.817Z,5.22
2023-01-25T08:06:59.955Z,4.82
2023-01-25T08:09:26.091Z,4.97
2023-01-25T08:11:52.208Z,4.65
2023-01-25T08:14:18.352Z,4.18
2023-01-25T08:16:44.478Z,4.50
2023-01-25T08:19:10.641Z,4.20
2023-01-25T08:21:36.754Z,4.30
2023-01-25T08:24:02.916Z,4.60
2023-01-25T08:26:29.175Z,4.32
2023-01-25T08:28:55.393Z,4.57
2023-01-25T08:31:21.831Z,5.10
2023-01-25T08:33:47.964Z,4.80
2023-01-25T08:36:14.273Z,4.70
2023-01-25T08:38:40.426Z,4.45
2023-01-25T08:41:06.600Z,4.93
2023-01-25T08:43:32.930Z,4.22
2023-01-25T08:45:59.076Z,4.65
2023-01-25T08:48:25.288Z,4.40
2023-01-25T08:50:51.409Z,5.03
2023-01-25T08:53:17.520Z,4.57
2023-01-25T08:55:43.710Z,5.10
2023-01-25T08:58:09.879Z,5.35
2023-01-25T09:00:36.021Z,5.22
2023-01-25T09:03:02.145Z,5.20
2023-01-25T09:05:28.288Z,4.88
2023-01-25T09:07:54.385Z,4.72
2023-01-25T09:10:20.709Z,5.13
2023-01-25T09:12:46.855Z,4.68
2023-01-25T09:15:14.185Z,5.45
2023-01-25T09:17:40.294Z,5.32
2023-01-25T09:20:06.840Z,5.05
2023-01-25T09:22:33.271Z,5.80
2023-01-25T09:24:59.411Z,5.25
2023-01-25T09:27:25.607Z,5.15
2023-01-25T09:30:01.453Z,5.28
2023-01-25T09:32:38.008Z,5.65
2023-01-25T09:35:04.215Z,5.32
2023-01-25T09:37:30.357Z,5.15
2023-01-25T09:39:56.494Z,5.25
2023-01-25T09:42:22.625Z,5.38
2023-01-25T09:44:48.800Z,5.53
2023-01-25T09:47:14.933Z,5.00
2023-01-25T09:49:41.048Z,5.13
2023-01-25T09:52:07.198Z,5.80
2023-01-25T09:54:42.284Z,6.20
2023-01-25T09:57:12.472Z,5.03
2023-01-25T09:59:38.701Z,5.75
2023-01-25T10:02:04.879Z,5.70
2023-01-25T10:04:31.026Z,5.60
2023-01-25T10:07:00.892Z,5.80
2023-01-25T10:09:27.807Z,5.43
2023-01-25T10:11:54.017Z,5.85
2023-01-25T10:14:20.158Z,5.78
2023-01-25T10:16:46.342Z,6.57
2023-01-25T10:19:12.533Z,6.03
2023-01-25T10:21:38.636Z,5.72
2023-01-25T10:24:04.842Z,6.00
2023-01-25T10:26:30.976Z,6.40
2023-01-25T10:28:57.098Z,5.53
2023-01-25T10:31:23.339Z,5.60
2023-01-25T10:33:49.487Z,5.10
2023-01-25T10:36:15.646Z,5.25
2023-01-25T10:38:41.765Z,5.40
2023-01-25T10:41:07.898Z,5.40
2023-01-25T10:43:34.148Z,5.53
2023-01-25T10:46:00.287Z,5.90
2023-01-25T10:48:29.022Z,5.30
2023-01-25T10:50:56.622Z,5.60
2023-01-25T10:53:22.901Z,5.60
2023-01-25T10:58:29.274Z,5.25
2023-01-25T11:00:55.872Z,5.60
2023-01-25T11:03:22.144Z,5.18
2023-01-25T11:05:49.460Z,5.28
2023-01-25T11:08:15.780Z,5.55
2023-01-25T11:10:42.478Z,5.35
2023-01-25T11:13:10.082Z,5.72
2023-01-25T11:15:36.852Z,5.47
2023-01-25T11:18:03.555Z,5.80
2023-01-25T11:20:30.105Z,5.43
2023-01-25T11:23:00.411Z,5.53
2023-01-25T11:25:26.800Z,5.50
2023-01-25T11:27:53.298Z,6.10
2023-01-25T11:30:31.100Z,5.25
2023-01-25T11:32:59.006Z,5.25
2023-01-25T11:38:05.999Z,5.53
2023-01-25T11:40:32.240Z,5.70
2023-01-25T11:42:58.815Z,5.22
2023-01-25T11:45:25.506Z,6.30
2023-01-25T11:47:54.026Z,7.05
2023-01-25T11:55:44.321Z,6.57
2023-01-25T11:58:10.680Z,6.20
2023-01-25T12:00:38.173Z,6.65
2023-01-25T12:03:04.690Z,6.65
2023-01-25T12:05:31.610Z,7.18
2023-01-25T12:07:58.911Z,7.53
2023-01-25T12:10:25.345Z,6.43
2023-01-25T12:12:51.678Z,7.32
2023-01-25T12:18:05.582Z,6.60
2023-01-25T12:20:32.014Z,6.97
2023-01-25T12:22:58.420Z,6.75
2023-01-25T12:25:25.668Z,6.35
2023-01-25T12:27:56.417Z,6.25
2023-01-25T12:30:23.345Z,6.90
2023-01-25T12:32:49.791Z,6.93
2023-01-25T12:35:16.695Z,7.63
2023-01-25T12:37:43.434Z,6.75
2023-01-25T12:40:10.305Z,6.75
2023-01-25T12:42:36.704Z,7.30
2023-01-25T12:47:45.342Z,7.32
2023-01-25T12:50:12.062Z,6.90
2023-01-25T12:52:38.661Z,7.78
2023-01-25T12:55:06.930Z,7.75
2023-01-25T12:57:37.042Z,7.15
2023-01-25T13:00:03.399Z,6.82
2023-01-25T13:02:30.931Z,6.32
2023-01-25T13:04:58.246Z,6.50
2023-01-25T13:07:24.838Z,6.78
2023-01-25T13:09:51.688Z,6.53
2023-01-25T13:12:23.114Z,25.45
2023-01-25T13:14:54.956Z,8.00
2023-01-25T13:17:21.892Z,7.88
2023-01-25T13:25:08.788Z,8.18
2023-01-25T13:30:20.669Z,8.73
2023-01-25T13:32:47.936Z,8.98
2023-01-25T13:35:15.318Z,9.27
2023-01-25T13:37:43.202Z,8.95
2023-01-25T13:42:50.411Z,9.43
2023-01-25T13:45:18.639Z,8.32
2023-01-25T13:47:53.819Z,8.73
2023-01-25T13:50:20.565Z,8.75
2023-01-25T13:52:46.889Z,8.70
2023-01-25T13:55:13.397Z,9.63
2023-01-25T13:57:39.798Z,9.23
2023-01-25T14:00:10.652Z,8.45
2023-01-25T14:05:18.375Z,9.48
2023-01-25T14:07:45.353Z,8.65
2023-01-25T14:10:13.685Z,8.15
2023-01-25T14:12:43.907Z,9.07
2023-01-25T14:17:50.424Z,8.95
2023-01-25T14:22:57.556Z,9.88
2023-01-25T14:25:25.660Z,9.02
2023-01-25T14:27:54.089Z,9.18
2023-01-25T14:30:25.862Z,8.88
2023-01-25T14:32:53.980Z,8.55
2023-01-25T14:35:21.725Z,9.23
2023-01-25T14:37:48.765Z,8.27
2023-01-25T14:45:36.098Z,8.80
2023-01-25T14:48:03.080Z,9.43
2023-01-25T14:50:30.053Z,8.07
2023-01-25T14:52:56.518Z,8.75
2023-01-25T14:55:24.696Z,9.20
2023-01-25T15:00:31.177Z,7.43
2023-01-25T15:08:22.323Z,8.45
2023-01-25T15:13:29.351Z,8.52
2023-01-25T15:15:57.971Z,8.30
2023-01-25T15:18:25.089Z,8.45
2023-01-25T15:20:52.963Z,8.85
2023-01-25T15:23:19.228Z,8.23
2023-01-25T15:25:45.932Z,8.88
2023-01-25T15:28:12.471Z,8.15
2023-01-25T15:33:30.703Z,8.18
2023-01-25T15:35:57.161Z,8.30
2023-01-25T15:38:23.820Z,8.15
2023-01-25T15:40:50.530Z,8.57
2023-01-25T15:43:17.486Z,7.85
2023-01-25T15:48:24.822Z,8.05
2023-01-25T15:58:53.459Z,7.38
2023-01-25T16:01:22.007Z,7.35
2023-01-25T16:03:52.041Z,7.03
2023-01-25T16:06:19.982Z,7.45
2023-01-25T16:14:07.294Z,8.02
2023-01-25T16:16:33.844Z,8.18
2023-01-25T16:19:01.226Z,7.75
2023-01-25T16:21:27.597Z,9.63
2023-01-25T16:23:54.006Z,8.15
2023-01-25T16:29:01.106Z,7.43
2023-01-25T16:31:32.722Z,7.22
2023-01-25T16:34:00.831Z,8.43
2023-01-25T16:39:07.817Z,8.73
2023-01-25T16:41:42.019Z,8.85
2023-01-25T16:46:50.411Z,6.95
2023-01-25T22:47:41.990Z,9.30
2023-01-25T22:50:08.411Z,9.57
2023-01-25T22:52:35.954Z,9.50
2023-01-25T22:55:02.438Z,9.25
2023-01-25T22:57:28.713Z,9.77
2023-01-25T22:59:55.047Z,8.90
2023-01-25T23:02:21.562Z,10.25
2023-01-25T23:04:47.999Z,9.35
2023-01-25T23:07:14.388Z,8.77
2023-01-25T23:09:41.324Z,8.38
2023-01-25T23:12:08.080Z,8.40
2023-01-25T23:14:34.520Z,8.70
2023-01-25T23:17:00.936Z,8.23
2023-01-25T23:19:28.460Z,8.80
2023-01-25T23:21:54.874Z,10.20
2023-01-25T23:24:21.528Z,8.48
2023-01-25T23:26:47.774Z,9.13
2023-01-25T23:29:14.626Z,8.07
2023-01-25T23:31:41.284Z,8.32
2023-01-25T23:34:07.754Z,8.32
2023-01-25T23:36:34.388Z,8.63
2023-01-25T23:39:00.677Z,8.02
2023-01-25T23:41:27.504Z,8.40
2023-01-25T23:43:53.824Z,7.45
2023-01-25T23:46:20.344Z,8.30
2023-01-25T23:48:46.802Z,9.20
2023-01-25T23:51:13.171Z,8.32
2023-01-25T23:53:39.611Z,8.43
2023-01-25T23:56:05.939Z,7.93
2023-01-25T23:58:34.160Z,8.15
